Time;durP1;ratioP1;P1;durP2;ratioP2;P2;SDS_P1;SDS_P2;PMS_P1;PMS_P2;Temp;Humidity;BMP_temperature;BMP_pressure;BME280_temperature;BME280_humidity;BME280_pressure;Samples;Min_cycle;Max_cycle;Signal;HPM_P1;HPM_P2
2023/03/21 00:01:28;;;;;;;0.00;0.00;;;;;;;8.46;100.00;100001.06;4973551;28;20045;-75
2023/03/21 00:03:54;;;;;;;0.00;0.00;;;;;;;8.50;100.00;100008.44;4964046;28;20042;-72
2023/03/21 00:06:43;;;;;;;0.00;0.00;;;;;;;8.49;100.00;100001.34;4950134;28;20040;-74
2023/03/21 00:09:38;;;;;;;0.00;0.00;;;;;;;8.62;100.00;100005.50;5007466;28;20437;-74
2023/03/21 00:12:09;;;;;;;;;;;;;;;8.64;100.00;99997.88;4981914;28;20103;-73
2023/03/21 00:14:38;;;;;;;0.00;0.00;;;;;;;8.60;100.00;99994.06;4980828;28;19922;-72
2023/03/21 00:20:05;;;;;;;;;;;;;;;;;;;;;
2023/03/21 00:22:42;;;;;;;0.00;0.00;;;;;;;8.49;100.00;99949.56;5002835;28;20034;-77
2023/03/21 00:25:19;;;;;;;;;;;;;;;;;;;;;
2023/03/21 00:27:47;;;;;;;0.00;0.00;;;;;;;8.64;100.00;99962.44;5006039;28;20044;-74
2023/03/21 00:30:13;;;;;;;0.00;0.00;;;;;;;8.70;100.00;99969.59;4982095;28;20034;-72
2023/03/21 00:32:40;;;;;;;0.00;0.00;;;;;;;8.75;100.00;99971.50;4965249;28;20503;-74
2023/03/21 00:35:08;;;;;;;0.00;0.00;;;;;;;8.81;100.00;99977.81;4985114;28;20387;-75
2023/03/21 00:37:34;;;;;;;0.00;0.00;;;;;;;8.88;100.00;99983.84;4966321;28;20117;-73
2023/03/21 00:40:07;;;;;;;0.00;0.00;;;;;;;8.87;100.00;99980.28;5007481;28;20383;-74
2023/03/21 00:42:32;;;;;;;0.00;0.00;;;;;;;8.91;100.00;99978.66;4990743;28;20481;-73
2023/03/21 00:45:00;;;;;;;0.00;0.00;;;;;;;8.91;100.00;99970.50;4999555;28;20034;-73
2023/03/21 00:47:26;;;;;;;0.00;0.00;;;;;;;9.02;100.00;99981.44;4984933;28;20022;-75
2023/03/21 00:49:52;;;;;;;0.00;0.00;;;;;;;9.04;100.00;99973.84;5005260;28;20173;-73
2023/03/21 00:52:17;;;;;;;0.00;0.00;;;;;;;9.03;100.00;99966.72;5002186;28;20652;-74
2023/03/21 00:54:52;;;;;;;0.00;0.00;;;;;;;9.02;100.00;99959.63;4973675;28;20705;-74
2023/03/21 00:57:18;;;;;;;0.00;0.00;;;;;;;8.89;100.00;99945.41;4991566;28;20080;-73
2023/03/21 00:59:44;;;;;;;0.00;0.00;;;;;;;8.98;100.00;99969.41;4989793;28;20030;-72
2023/03/21 01:02:13;;;;;;;0.00;0.00;;;;;;;8.96;100.00;99961.50;5002949;28;20041;-73
2023/03/21 01:04:39;;;;;;;0.00;0.00;;;;;;;8.91;100.00;99958.78;5004833;28;20041;-74
2023/03/21 01:07:04;;;;;;;0.00;0.00;;;;;;;8.89;100.00;99950.88;4986048;28;20037;-73
2023/03/21 01:09:30;;;;;;;0.00;0.00;;;;;;;8.97;100.00;99957.69;4992893;28;20378;-75
2023/03/21 01:11:56;;;;;;;0.00;0.00;;;;;;;8.96;100.00;99947.06;5012127;28;20479;-74
2023/03/21 01:14:22;;;;;;;0.00;0.00;;;;;;;8.92;100.00;99938.56;4970597;28;20225;-73
2023/03/21 01:16:52;;;;;;;0.00;0.00;;;;;;;9.05;100.00;99948.19;4986800;28;20029;-74
2023/03/21 01:19:22;;;;;;;0.00;0.00;;;;;;;8.93;100.00;99923.06;4991196;28;20035;-75
2023/03/21 01:21:49;;;;;;;0.00;0.00;;;;;;;8.96;100.00;99927.97;4987221;28;20109;-76
2023/03/21 01:24:15;;;;;;;0.00;0.00;;;;;;;9.01;100.00;99936.16;4972717;28;20047;-76
2023/03/21 01:26:40;;;;;;;0.00;0.00;;;;;;;9.02;100.00;99932.34;4990861;28;20389;-73
2023/03/21 01:29:06;;;;;;;0.00;0.00;;;;;;;8.94;100.00;99924.72;5000421;28;20034;-73
2023/03/21 01:31:31;;;;;;;0.00;0.00;;;;;;;8.93;100.00;99917.59;4984734;28;20546;-73
2023/03/21 01:33:57;;;;;;;0.00;0.00;;;;;;;8.93;100.00;99923.06;4992507;28;20065;-74
2023/03/21 01:36:25;;;;;;;0.00;0.00;;;;;;;8.82;100.00;99911.28;5001638;28;20104;-73
2023/03/21 01:38:52;;;;;;;0.00;0.00;;;;;;;8.84;100.00;99915.38;5005067;28;20034;-73
2023/03/21 01:41:29;;;;;;;0.00;0.00;;;;;;;8.74;100.00;99910.69;5018976;28;20610;-74
2023/03/21 01:43:55;;;;;;;0.00;0.00;;;;;;;8.74;100.00;99913.44;5016157;28;20065;-76
2023/03/21 01:46:43;;;;;;;0.00;0.00;;;;;;;8.56;100.00;99898.38;5004646;28;20060;-76
2023/03/21 01:49:08;;;;;;;0.00;0.00;;;;;;;8.62;100.00;99912.03;4989022;28;20412;-75
2023/03/21 01:51:49;;;;;;;0.00;0.00;;;;;;;8.55;100.00;99902.16;4988669;28;20133;-76
2023/03/21 01:54:23;;;;;;;0.00;0.00;;;;;;;8.50;100.00;99877.63;4991944;28;20100;-75
2023/03/21 01:56:52;;;;;;;0.00;0.00;;;;;;;8.54;100.00;99889.66;4992367;28;20353;-75
2023/03/21 01:59:32;;;;;;;0.00;0.00;;;;;;;8.42;100.00;99872.66;4984413;28;20037;-76
2023/03/21 02:02:06;;;;;;;0.00;0.00;;;;;;;8.49;100.00;99892.34;5010607;28;20431;-75
2023/03/21 02:04:34;;;;;;;0.00;0.00;;;;;;;8.42;100.00;99885.47;4996211;28;20033;-75
2023/03/21 02:07:11;;;;;;;0.00;0.00;;;;;;;8.28;100.00;99879.66;4968221;28;20025;-74
2023/03/21 02:09:40;;;;;;;0.00;0.00;;;;;;;8.11;100.00;99864.31;5003507;28;20392;-73
2023/03/21 02:12:08;;;;;;;0.00;0.00;;;;;;;8.03;100.00;99868.38;5009843;28;20076;-73
2023/03/21 02:14:36;;;;;;;0.00;0.00;;;;;;;7.90;100.00;99871.53;4970140;28;20029;-73
2023/03/21 02:17:26;;;;;;;0.00;0.00;;;;;;;7.86;100.00;99873.97;4993269;28;20025;-73
2023/03/21 02:20:33;;;;;;;0.00;0.00;;;;;;;7.84;100.00;99865.25;4998166;28;20048;-73
2023/03/21 02:23:28;;;;;;;0.00;0.00;;;;;;;7.82;100.00;99866.56;4964574;28;20083;-75
2023/03/21 02:26:11;;;;;;;0.00;0.00;;;;;;;7.81;100.00;99870.38;4994207;28;20034;-75
2023/03/21 02:28:37;;;;;;;0.00;0.00;;;;;;;7.78;100.00;99851.84;4985181;28;20435;-75
2023/03/21 02:31:20;;;;;;;0.00;0.00;;;;;;;7.82;100.00;99850.25;4985213;28;20080;-75
2023/03/21 02:33:58;;;;;;;0.00;0.00;;;;;;;7.83;100.00;99836.38;4986913;28;20021;-75
2023/03/21 02:36:33;;;;;;;0.00;0.00;;;;;;;7.84;100.00;99840.75;4982473;28;20077;-75
2023/03/21 02:39:07;;;;;;;0.00;0.00;;;;;;;7.85;100.00;99833.38;5012210;28;20454;-75
2023/03/21 02:41:42;;;;;;;;;;;;;;;7.85;100.00;99828.75;5002397;28;20026;-74
2023/03/21 02:44:18;;;;;;;0.05;0.05;;;;;;;7.86;100.00;99824.97;5006255;28;19923;-75
2023/03/21 02:46:50;;;;;;;0.00;0.00;;;;;;;7.84;100.00;99816.25;4990565;28;20050;-75
2023/03/21 02:49:29;;;;;;;0.00;0.00;;;;;;;7.81;100.00;99819.50;4998711;28;20088;-74
2023/03/21 02:51:58;;;;;;;0.00;0.00;;;;;;;7.77;100.00;99810.22;4994456;28;20026;-75
2023/03/21 02:54:25;;;;;;;0.00;0.00;;;;;;;7.82;100.00;99814.84;4993217;28;20030;-74
2023/03/21 02:56:57;;;;;;;0.00;0.00;;;;;;;7.73;100.00;99803.66;4984388;28;20109;-75
2023/03/21 02:59:25;;;;;;;0.00;0.00;;;;;;;7.72;100.00;99803.91;4982033;28;20716;-75
2023/03/21 03:01:52;;;;;;;0.00;0.00;;;;;;;7.77;100.00;99821.09;5001965;28;20029;-74
2023/03/21 03:04:20;;;;;;;0.00;0.00;;;;;;;7.67;100.00;99785.66;5001516;28;20041;-74
2023/03/21 03:06:55;;;;;;;0.00;0.00;;;;;;;7.82;100.00;99802.06;4991633;28;20042;-74
2023/03/21 03:09:37;;;;;;;0.00;0.00;;;;;;;7.81;100.00;99800.44;4999712;28;20484;-74
2023/03/21 03:12:37;;;;;;;0.00;0.00;;;;;;;7.82;100.00;99795.81;4993993;28;20113;-74
2023/03/21 03:15:12;;;;;;;0.00;0.00;;;;;;;7.82;100.00;99807.50;5005880;28;20099;-75
2023/03/21 03:17:54;;;;;;;0.00;0.00;;;;;;;7.76;100.00;99786.78;4988134;28;20026;-74
2023/03/21 03:20:33;;;;;;;0.00;0.00;;;;;;;7.72;100.00;99774.78;4992839;28;20060;-75
2023/03/21 03:23:10;;;;;;;0.00;0.00;;;;;;;7.81;100.00;99786.84;4993829;28;20027;-75
2023/03/21 03:25:47;;;;;;;0.00;0.00;;;;;;;7.77;100.00;99772.09;4999981;28;21130;-74
2023/03/21 03:28:16;;;;;;;0.00;0.00;;;;;;;7.79;100.00;99775.38;5006609;28;20041;-74
2023/03/21 03:30:45;;;;;;;0.00;0.00;;;;;;;7.75;100.00;99768.81;4984144;28;20060;-74
2023/03/21 03:33:15;;;;;;;0.00;0.00;;;;;;;7.82;100.00;99784.91;4986413;28;20109;-74
2023/03/21 03:35:43;;;;;;;0.00;0.00;;;;;;;7.74;100.00;99767.19;4980023;28;20033;-75
2023/03/21 03:38:11;;;;;;;0.00;0.00;;;;;;;7.80;100.00;99781.66;5007849;28;20026;-78
2023/03/21 03:40:45;;;;;;;0.00;0.00;;;;;;;7.77;100.00;99774.81;4999512;28;20128;-76
2023/03/21 03:43:17;;;;;;;0.00;0.00;;;;;;;7.74;100.00;99769.06;5000394;28;20122;-77
2023/03/21 03:45:55;;;;;;;0.00;0.00;;;;;;;7.77;100.00;99776.72;4986316;28;20034;-78
2023/03/21 03:48:25;;;;;;;0.00;0.00;;;;;;;7.85;100.00;99777.03;4994972;28;20064;-77
2023/03/21 03:51:02;;;;;;;0.00;0.00;;;;;;;7.80;100.00;99766.13;4984116;28;20038;-77
2023/03/21 03:53:35;;;;;;;0.00;0.00;;;;;;;7.82;100.00;99774.84;4994995;28;20034;-77
2023/03/21 03:56:03;;;;;;;0.00;0.00;;;;;;;7.85;100.00;99779.75;4996985;28;20026;-76
2023/03/21 03:58:31;;;;;;;0.00;0.00;;;;;;;7.89;100.00;99760.19;4967064;28;20035;-78
2023/03/21 04:00:56;;;;;;;0.00;0.00;;;;;;;7.91;100.00;99753.38;4965456;28;20030;-76
2023/03/21 04:03:22;;;;;;;0.00;0.00;;;;;;;7.91;100.00;99744.41;4967090;28;20037;-75
2023/03/21 04:05:47;;;;;;;0.00;0.00;;;;;;;7.92;100.00;99746.06;4990318;28;20030;-77
2023/03/21 04:08:14;;;;;;;0.00;0.00;;;;;;;7.93;100.00;99737.63;4981462;28;20080;-76
2023/03/21 04:10:41;;;;;;;0.00;0.00;;;;;;;7.95;100.00;99738.16;4969989;28;20055;-76
2023/03/21 04:13:07;;;;;;;0.00;0.00;;;;;;;7.99;100.00;99741.19;4960892;28;20122;-76
2023/03/21 04:15:32;;;;;;;0.00;0.00;;;;;;;7.94;100.00;99727.53;4984499;28;20113;-77
2023/03/21 04:17:57;;;;;;;0.03;0.03;;;;;;;7.98;100.00;99740.34;4958437;28;20104;-75
2023/03/21 04:20:23;;;;;;;0.00;0.00;;;;;;;7.98;100.00;99734.09;4946374;28;20038;-77
2023/03/21 04:22:50;;;;;;;0.00;0.00;;;;;;;8.00;100.00;99726.47;4958768;28;20117;-77
2023/03/21 04:25:15;;;;;;;0.00;0.00;;;;;;;8.02;100.00;99724.31;4973843;28;20034;-76
2023/03/21 04:27:41;;;;;;;0.00;0.00;;;;;;;8.02;100.00;99721.59;4957892;28;20338;-76
2023/03/21 04:30:10;;;;;;;0.00;0.00;;;;;;;8.09;100.00;99724.03;4962382;28;20054;-76
2023/03/21 04:32:38;;;;;;;0.00;0.00;;;;;;;8.12;100.00;99718.91;4971049;28;20065;-76
2023/03/21 04:35:05;;;;;;;0.00;0.00;;;;;;;8.17;100.00;99713.47;4958205;28;20461;-76
2023/03/21 04:37:32;;;;;;;0.00;0.00;;;;;;;8.16;100.00;99703.66;4954164;28;20061;-76
2023/03/21 04:39:58;;;;;;;0.00;0.00;;;;;;;8.23;100.00;99716.22;4956948;28;20030;-76
2023/03/21 04:42:24;;;;;;;0.00;0.00;;;;;;;8.15;100.00;99696.59;4941758;28;20080;-78
2023/03/21 04:44:49;;;;;;;0.00;0.00;;;;;;;8.20;100.00;99706.66;4968237;28;20081;-75
2023/03/21 04:47:19;;;;;;;0.10;0.10;;;;;;;8.17;100.00;99704.47;4946795;28;20038;-76
2023/03/21 04:49:48;;;;;;;0.00;0.00;;;;;;;8.20;100.00;99715.66;4978672;28;20026;-77
2023/03/21 04:52:14;;;;;;;0.00;0.00;;;;;;;8.19;100.00;99708.59;4959579;28;20469;-77
2023/03/21 04:54:39;;;;;;;0.00;0.00;;;;;;;8.21;100.00;99695.50;4970883;28;20037;-76
2023/03/21 04:57:05;;;;;;;0.00;0.00;;;;;;;8.21;100.00;99700.94;4940115;28;20457;-77
2023/03/21 04:59:31;;;;;;;0.00;0.00;;;;;;;8.23;100.00;99697.16;4957138;28;20031;-77
2023/03/21 05:01:57;;;;;;;0.00;0.00;;;;;;;8.29;100.00;99690.63;4936210;28;20126;-77
2023/03/21 05:04:23;;;;;;;0.00;0.00;;;;;;;8.25;100.00;99684.91;4984049;28;20018;-75
2023/03/21 05:06:48;;;;;;;0.00;0.00;;;;;;;8.28;100.00;99694.41;4966319;28;20031;-77
2023/03/21 05:09:14;;;;;;;0.00;0.00;;;;;;;8.26;100.00;99697.41;4977609;28;20445;-76
2023/03/21 05:11:40;;;;;;;0.00;0.00;;;;;;;8.27;100.00;99681.91;4968697;28;20611;-78
2023/03/21 05:14:10;;;;;;;0.00;0.00;;;;;;;8.23;100.00;99678.09;4984999;28;20022;-78
2023/03/21 05:16:37;;;;;;;0.00;0.00;;;;;;;8.27;100.00;99671.00;4977662;28;20117;-77
2023/03/21 05:19:03;;;;;;;0.00;0.00;;;;;;;8.28;100.00;99657.13;4976150;28;20030;-77
2023/03/21 05:21:40;;;;;;;0.00;0.00;;;;;;;8.28;100.00;99654.41;5000922;28;20076;-76
2023/03/21 05:24:12;;;;;;;0.00;0.00;;;;;;;8.18;100.00;99644.28;4989279;28;20025;-76
2023/03/21 05:26:38;;;;;;;0.00;0.00;;;;;;;8.30;100.00;99662.31;4990032;28;20053;-77
2023/03/21 05:29:04;;;;;;;0.00;0.00;;;;;;;8.32;100.00;99652.78;4991249;28;20029;-76
2023/03/21 05:31:30;;;;;;;0.10;0.10;;;;;;;8.26;100.00;99645.66;4989755;28;20029;-78
2023/03/21 05:33:58;;;;;;;0.00;0.00;;;;;;;8.29;100.00;99644.31;4983730;28;20395;-79
2023/03/21 05:36:24;;;;;;;0.00;0.00;;;;;;;8.37;100.00;99660.13;4991608;28;20088;-78
2023/03/21 05:38:50;;;;;;;0.00;0.00;;;;;;;8.43;100.00;99674.59;4987373;28;20030;-77
2023/03/21 05:41:16;;;;;;;0.00;0.00;;;;;;;8.40;100.00;99659.59;5009409;28;20056;-78
2023/03/21 05:43:42;;;;;;;0.00;0.00;;;;;;;8.43;100.00;99658.25;5009161;28;20025;-78
2023/03/21 05:46:10;;;;;;;0.00;0.00;;;;;;;8.41;100.00;99655.78;4973816;28;20178;-79
2023/03/21 05:48:36;;;;;;;0.00;0.00;;;;;;;8.33;100.00;99643.50;5008591;28;20076;-78
2023/03/21 05:51:08;;;;;;;0.00;0.00;;;;;;;8.49;100.00;99674.34;4999221;28;20498;-78
2023/03/21 05:53:33;;;;;;;0.00;0.00;;;;;;;8.46;100.00;99658.53;4981224;28;20117;-78
2023/03/21 05:55:59;;;;;;;0.00;0.00;;;;;;;8.49;100.00;99666.16;4972731;28;20075;-77
2023/03/21 05:58:24;;;;;;;0.00;0.00;;;;;;;8.52;100.00;99673.78;4953312;28;20510;-78
2023/03/21 06:00:50;;;;;;;0.00;0.00;;;;;;;8.54;100.00;99666.19;4985223;28;20026;-77
2023/03/21 06:03:16;;;;;;;0.00;0.00;;;;;;;8.51;100.00;99655.81;4983669;28;20022;-78
2023/03/21 06:05:42;;;;;;;0.00;0.00;;;;;;;8.59;100.00;99672.72;5006794;28;20030;-78
2023/03/21 06:08:10;;;;;;;0.00;0.00;;;;;;;8.60;100.00;99679.81;4971724;28;21117;-77
2023/03/21 06:10:35;;;;;;;0.00;0.00;;;;;;;8.62;100.00;99683.09;5001051;28;20054;-77
2023/03/21 06:13:01;;;;;;;0.00;0.00;;;;;;;8.60;100.00;99668.91;4949949;28;20049;-79
2023/03/21 06:15:26;;;;;;;0.00;0.00;;;;;;;8.65;100.00;99671.63;4978174;28;20384;-79
2023/03/21 06:17:52;;;;;;;0.00;0.00;;;;;;;8.63;100.00;99669.19;5010008;28;20489;-79
2023/03/21 06:20:19;;;;;;;0.00;0.00;;;;;;;8.64;100.00;99681.72;4988711;28;20026;-77
2023/03/21 06:22:45;;;;;;;0.00;0.00;;;;;;;8.55;100.00;99667.00;4987721;28;20056;-76
2023/03/21 06:25:11;;;;;;;0.00;0.00;;;;;;;8.63;100.00;99673.81;5000482;28;20069;-78
2023/03/21 06:27:41;;;;;;;0.00;0.00;;;;;;;8.64;100.00;99667.28;5006921;28;20030;-77
2023/03/21 06:30:08;;;;;;;0.00;0.00;;;;;;;8.65;100.00;99668.91;4972621;28;20492;-78
2023/03/21 06:32:35;;;;;;;0.00;0.00;;;;;;;8.60;100.00;99674.34;4962285;28;20077;-78
2023/03/21 06:35:01;;;;;;;0.00;0.00;;;;;;;8.72;100.00;99677.66;4992242;28;20109;-77
2023/03/21 06:37:26;;;;;;;0.00;0.00;;;;;;;8.70;100.00;99675.19;4982686;28;20034;-78
2023/03/21 06:39:52;;;;;;;0.00;0.00;;;;;;;8.77;100.00;99677.63;4987046;28;20038;-78
2023/03/21 06:42:18;;;;;;;0.00;0.00;;;;;;;8.78;100.00;99671.09;4974756;28;20124;-78
2023/03/21 06:44:43;;;;;;;0.00;0.00;;;;;;;8.80;100.00;99677.09;4960156;28;20116;-77
2023/03/21 06:47:09;;;;;;;0.00;0.00;;;;;;;8.72;100.00;99645.75;4976400;28;20061;-78
2023/03/21 06:49:34;;;;;;;0.00;0.00;;;;;;;8.77;100.00;99657.75;4955511;28;20030;-76
2023/03/21 06:52:00;;;;;;;0.00;0.00;;;;;;;8.74;100.00;99648.19;4978898;28;20032;-76
2023/03/21 06:54:25;;;;;;;0.10;0.10;;;;;;;8.76;100.00;99640.56;4986826;28;20033;-76
2023/03/21 06:56:51;;;;;;;0.00;0.00;;;;;;;8.78;100.00;99638.38;4977909;28;20413;-75
2023/03/21 06:59:16;;;;;;;0.00;0.00;;;;;;;8.81;100.00;99643.28;5005866;28;20022;-76
2023/03/21 07:01:44;;;;;;;0.03;0.03;;;;;;;8.85;100.00;99649.03;4983743;28;20376;-76
2023/03/21 07:04:10;;;;;;;0.00;0.00;;;;;;;8.82;100.00;99638.63;4984715;28;20480;-75
2023/03/21 07:06:36;;;;;;;0.00;0.00;;;;;;;8.81;100.00;99642.47;4986942;28;20040;-75
2023/03/21 07:09:04;;;;;;;0.00;0.00;;;;;;;8.90;100.00;99655.28;5007070;28;20078;-75
2023/03/21 07:11:30;;;;;;;0.00;0.00;;;;;;;8.90;100.00;99651.72;5003007;28;20025;-75
2023/03/21 07:14:01;;;;;;;0.00;0.00;;;;;;;8.94;100.00;99663.72;5004188;28;20030;-75
2023/03/21 07:16:26;;;;;;;0.00;0.00;;;;;;;8.96;100.00;99656.09;4972360;28;20030;-75
2023/03/21 07:18:57;;;;;;;0.00;0.00;;;;;;;8.94;100.00;99662.94;4994713;28;20717;-76
2023/03/21 07:21:25;;;;;;;0.00;0.00;;;;;;;9.00;100.00;99653.66;5006238;28;20022;-75
2023/03/21 07:23:50;;;;;;;0.00;0.00;;;;;;;8.94;100.00;99641.91;4985144;28;20026;-74
2023/03/21 07:26:17;;;;;;;0.00;0.00;;;;;;;9.04;100.00;99665.66;5007060;28;20022;-75
2023/03/21 07:28:46;;;;;;;0.00;0.00;;;;;;;8.99;100.00;99646.53;4993185;28;20022;-76
2023/03/21 07:31:15;;;;;;;0.00;0.00;;;;;;;9.07;100.00;99662.38;4993052;28;20125;-74
2023/03/21 07:33:40;;;;;;;0.00;0.00;;;;;;;9.12;100.00;99656.88;4994486;28;20030;-81
2023/03/21 07:36:11;;;;;;;0.00;0.00;;;;;;;9.16;100.00;99652.53;4963844;28;20037;-75
2023/03/21 07:38:47;;;;;;;;;;;;;;;;;;;;;
2023/03/21 07:41:13;;;;;;;0.00;0.00;;;;;;;9.20;100.00;99667.25;4993684;28;20030;-81
2023/03/21 07:43:40;;;;;;;0.00;0.00;;;;;;;9.19;100.00;99665.59;4956701;28;20144;-76
2023/03/21 07:46:06;;;;;;;0.00;0.00;;;;;;;9.28;100.00;99662.31;4976256;28;20045;-75
2023/03/21 07:48:37;;;;;;;0.00;0.00;;;;;;;9.33;100.00;99660.41;4997474;28;20103;-76
2023/03/21 07:51:05;;;;;;;0.00;0.00;;;;;;;9.28;100.00;99654.16;4966608;28;20137;-76
2023/03/21 07:53:35;;;;;;;0.00;0.00;;;;;;;9.32;100.00;99666.16;5003210;28;20034;-76
2023/03/21 07:56:02;;;;;;;0.00;0.00;;;;;;;9.39;100.00;99696.69;4985412;28;20052;-73
2023/03/21 07:58:28;;;;;;;0.00;0.00;;;;;;;9.44;100.00;99655.72;5005381;28;20045;-74
2023/03/21 08:00:55;;;;;;;0.00;0.00;;;;;;;9.56;100.00;99659.00;4993243;28;20026;-73
2023/03/21 08:03:22;;;;;;;0.00;0.00;;;;;;;9.70;100.00;99680.22;4983368;28;20084;-74
2023/03/21 08:05:48;;;;;;;0.00;0.00;;;;;;;9.65;100.00;99661.97;5001671;28;20089;-76
2023/03/21 08:08:18;;;;;;;0.00;0.00;;;;;;;9.70;100.00;99669.31;5001750;28;20025;-75
2023/03/21 08:10:44;;;;;;;0.00;0.00;;;;;;;9.63;100.00;99657.88;4992619;28;20061;-73
2023/03/21 08:13:10;;;;;;;0.00;0.00;;;;;;;9.61;100.00;99683.53;4978832;28;20042;-73
2023/03/21 08:15:36;;;;;;;0.00;0.00;;;;;;;9.49;100.00;99679.47;5004105;28;20026;-76
2023/03/21 08:18:02;;;;;;;0.00;0.00;;;;;;;9.61;100.00;99675.34;5001336;28;20021;-75
2023/03/21 08:20:35;;;;;;;0.00;0.00;;;;;;;9.58;100.00;99666.91;4979983;28;20048;-75
2023/03/21 08:23:00;;;;;;;0.00;0.00;;;;;;;9.60;100.00;99670.97;4993184;28;20033;-75
2023/03/21 08:25:26;;;;;;;0.00;0.00;;;;;;;9.67;100.00;99661.69;4972472;28;20029;-75
2023/03/21 08:27:52;;;;;;;0.00;0.00;;;;;;;10.06;100.00;99660.94;4989415;28;20034;-75
2023/03/21 08:30:27;;;;;;;0.00;0.00;;;;;;;10.50;100.00;99649.25;4966983;28;20121;-76
2023/03/21 08:32:56;;;;;;;0.00;0.00;;;;;;;10.70;100.00;99645.50;4988989;28;20030;-75
2023/03/21 08:35:22;;;;;;;0.00;0.00;;;;;;;11.18;100.00;99674.91;4972929;28;20034;-75
2023/03/21 08:37:47;;;;;;;0.00;0.00;;;;;;;11.53;100.00;99659.22;4983515;28;20112;-75
2023/03/21 08:40:15;;;;;;;0.00;0.00;;;;;;;11.87;100.00;99669.22;4980930;28;20046;-75
2023/03/21 08:42:41;;;;;;;0.00;0.00;;;;;;;12.01;100.00;99661.97;4979821;28;20049;-75
2023/03/21 08:45:08;;;;;;;0.00;0.00;;;;;;;12.09;100.00;99676.13;4974209;28;20062;-75
2023/03/21 08:47:34;;;;;;;0.00;0.00;;;;;;;12.03;99.04;99667.97;4980110;28;20109;-75
2023/03/21 08:49:59;;;;;;;0.00;0.00;;;;;;;11.87;99.18;99674.72;5006125;28;20018;-75
2023/03/21 08:52:27;;;;;;;0.00;0.00;;;;;;;11.60;99.24;99684.34;5006652;28;20494;-75
2023/03/21 08:54:53;;;;;;;0.00;0.00;;;;;;;11.28;100.00;99661.13;5000965;28;20076;-75
2023/03/21 08:57:19;;;;;;;0.00;0.00;;;;;;;11.14;100.00;99674.69;5006695;28;20651;-75
2023/03/21 08:59:52;;;;;;;0.00;0.00;;;;;;;11.03;100.00;99683.28;4967809;28;20038;-75
2023/03/21 09:02:17;;;;;;;0.00;0.00;;;;;;;10.85;100.00;99668.38;4995009;28;20026;-75
2023/03/21 09:04:43;;;;;;;0.00;0.00;;;;;;;10.78;100.00;99693.34;4967519;28;20499;-74
2023/03/21 09:07:11;;;;;;;0.00;0.00;;;;;;;10.77;100.00;99697.16;5004324;28;20022;-75
2023/03/21 09:09:37;;;;;;;0.00;0.00;;;;;;;10.69;100.00;99670.41;4982962;28;20141;-75
2023/03/21 09:12:03;;;;;;;0.10;0.10;;;;;;;10.81;100.00;99704.50;4968880;28;20034;-76
2023/03/21 09:14:28;;;;;;;0.00;0.00;;;;;;;10.95;100.00;99680.06;4999284;28;20392;-75
2023/03/21 09:16:54;;;;;;;0.10;0.10;;;;;;;11.43;100.00;99676.56;4966124;28;20034;-74
2023/03/21 09:19:20;;;;;;;0.00;0.00;;;;;;;12.07;97.47;99683.81;4962700;28;20034;-74
2023/03/21 09:21:46;;;;;;;0.00;0.00;;;;;;;12.50;94.25;99673.63;4954652;28;20034;-74
2023/03/21 09:24:12;;;;;;;0.00;0.00;;;;;;;12.94;90.81;99674.31;5000897;28;20018;-75
2023/03/21 09:26:38;;;;;;;0.00;0.00;;;;;;;13.27;88.79;99677.03;4972442;28;20468;-74
2023/03/21 09:29:04;;;;;;;0.10;0.10;;;;;;;13.68;86.86;99679.06;4976633;28;20027;-76
2023/03/21 09:31:30;;;;;;;0.00;0.00;;;;;;;13.81;82.29;99684.84;5001814;28;20057;-75
2023/03/21 09:34:00;;;;;;;0.10;0.10;;;;;;;13.84;81.10;99673.22;4958713;28;20026;-75
2023/03/21 09:36:26;;;;;;;0.00;0.00;;;;;;;13.50;79.66;99674.47;4986753;28;20159;-75
2023/03/21 09:38:53;;;;;;;0.00;0.00;;;;;;;13.36;80.44;99690.91;4975188;28;20116;-75
2023/03/21 09:41:33;;;;;;;0.00;0.00;;;;;;;13.13;80.42;99684.41;4981717;28;20042;-75
2023/03/21 09:44:33;;;;;;;0.00;0.00;;;;;;;13.13;82.00;99684.41;4996098;28;20026;-75
2023/03/21 09:47:33;;;;;;;0.00;0.00;;;;;;;13.57;81.69;99677.63;4966131;28;20384;-76
2023/03/21 09:50:44;;;;;;;0.00;0.00;;;;;;;14.05;78.78;99688.19;4972280;28;20026;-75
2023/03/21 09:53:25;;;;;;;0.05;0.05;;;;;;;13.79;78.47;99696.94;4951800;28;20108;-75
2023/03/21 09:55:52;;;;;;;0.00;0.00;;;;;;;13.58;80.37;99687.47;4991513;28;20091;-75
2023/03/21 09:58:37;;;;;;;0.00;0.00;;;;;;;14.26;79.49;99696.00;4965273;28;20041;-76
2023/03/21 10:01:27;;;;;;;0.00;0.00;;;;;;;14.99;76.46;99684.97;4998489;28;20053;-75
2023/03/21 10:03:54;;;;;;;0.00;0.00;;;;;;;16.72;71.45;99685.88;4992537;28;20022;-75
2023/03/21 10:06:28;;;;;;;0.00;0.00;;;;;;;20.67;57.72;99678.78;4983501;28;20029;-76
2023/03/21 10:09:01;;;;;;;0.00;0.00;;;;;;;21.03;49.96;99662.31;4963143;28;20026;-76
2023/03/21 10:11:33;;;;;;;0.00;0.00;;;;;;;18.73;54.70;99666.81;5001406;28;20096;-75
2023/03/21 10:14:09;;;;;;;0.00;0.00;;;;;;;16.72;60.14;99663.78;4992663;28;20050;-76
2023/03/21 10:16:42;;;;;;;0.00;0.00;;;;;;;16.38;63.77;99681.97;5005120;28;20395;-75
2023/03/21 10:19:14;;;;;;;0.00;0.00;;;;;;;15.82;66.08;99667.91;4990493;28;20361;-76
2023/03/21 10:21:42;;;;;;;0.00;0.00;;;;;;;16.13;66.37;99667.00;5009363;28;20021;-76
2023/03/21 10:24:12;;;;;;;0.00;0.00;;;;;;;16.29;64.52;99672.06;4984246;28;20135;-75
2023/03/21 10:26:38;;;;;;;0.00;0.00;;;;;;;15.94;65.48;99658.22;4996212;28;20029;-74
2023/03/21 10:29:08;;;;;;;0.00;0.00;;;;;;;15.61;67.07;99651.13;4977368;28;20052;-75
2023/03/21 10:31:36;;;;;;;0.00;0.00;;;;;;;15.59;67.48;99642.34;4965627;28;20538;-76
2023/03/21 10:34:19;;;;;;;0.00;0.00;;;;;;;16.41;66.91;99647.38;4997826;28;20033;-75
2023/03/21 10:36:45;;;;;;;0.00;0.00;;;;;;;17.92;60.33;99661.38;5002290;28;20118;-75
2023/03/21 10:39:29;;;;;;;0.00;0.00;;;;;;;18.08;56.96;99650.53;5002943;28;20391;-75
2023/03/21 10:41:57;;;;;;;0.00;0.00;;;;;;;18.19;56.04;99642.66;5005507;28;20030;-75
2023/03/21 10:44:34;;;;;;;0.00;0.00;;;;;;;18.00;56.11;99640.34;5007408;28;20041;-75
2023/03/21 10:47:10;;;;;;;0.00;0.00;;;;;;;16.78;58.96;99652.56;5000854;28;20464;-76
2023/03/21 10:49:43;;;;;;;0.00;0.00;;;;;;;15.69;63.04;99642.03;4998978;28;20120;-75
2023/03/21 10:52:10;;;;;;;0.00;0.00;;;;;;;15.43;65.65;99644.69;4991144;28;20057;-77
2023/03/21 10:54:36;;;;;;;0.00;0.00;;;;;;;15.40;66.41;99639.84;5002067;28;20032;-76
2023/03/21 10:57:21;;;;;;;0.00;0.00;;;;;;;15.15;66.43;99628.38;4973195;28;20108;-77
2023/03/21 10:59:56;;;;;;;0.00;0.00;;;;;;;15.35;66.55;99626.22;5000238;28;20038;-78
2023/03/21 11:02:56;;;;;;;0.00;0.00;;;;;;;16.40;65.64;99654.06;4991809;28;20383;-77
2023/03/21 11:05:24;;;;;;;0.00;0.00;;;;;;;17.80;59.21;99645.47;4970183;28;20805;-76
2023/03/21 11:08:26;;;;;;;0.00;0.00;;;;;;;18.55;55.02;99632.94;4993047;28;20131;-76
2023/03/21 11:10:57;;;;;;;0.00;0.00;;;;;;;18.58;54.75;99638.59;4995714;28;20052;-75
2023/03/21 11:13:33;;;;;;;0.00;0.00;;;;;;;17.69;56.05;99635.94;5002359;28;20101;-75
2023/03/21 11:16:21;;;;;;;0.00;0.00;;;;;;;16.61;59.83;99653.41;5010088;28;20033;-76
2023/03/21 11:18:51;;;;;;;0.00;0.00;;;;;;;17.30;60.28;99635.91;5007842;28;20055;-75
2023/03/21 11:21:17;;;;;;;0.00;0.00;;;;;;;17.98;55.93;99628.81;4980767;28;20141;-76
2023/03/21 11:23:53;;;;;;;0.00;0.00;;;;;;;19.48;51.96;99644.53;4981363;28;20062;-75
2023/03/21 11:26:30;;;;;;;0.00;0.00;;;;;;;20.23;48.68;99653.66;4985988;28;20061;-76
2023/03/21 11:28:56;;;;;;;0.00;0.00;;;;;;;20.96;47.44;99659.34;4981503;28;20026;-76
2023/03/21 11:31:37;;;;;;;0.00;0.00;;;;;;;20.84;47.89;99672.13;4967110;28;20023;-76
2023/03/21 11:34:14;;;;;;;0.00;0.00;;;;;;;20.19;47.70;99663.84;4984718;28;20014;-74
2023/03/21 11:36:39;;;;;;;0.00;0.00;;;;;;;18.45;52.01;99640.47;4980496;28;20104;-76
2023/03/21 11:39:10;;;;;;;0.00;0.00;;;;;;;18.56;54.50;99667.75;5001322;28;21099;-76
2023/03/21 11:41:40;;;;;;;0.00;0.00;;;;;;;18.18;52.76;99658.44;4996097;28;20030;-76
2023/03/21 11:44:25;;;;;;;0.00;0.00;;;;;;;17.31;56.21;99647.78;4984961;28;20025;-75
2023/03/21 11:46:50;;;;;;;0.00;0.00;;;;;;;19.11;52.98;99644.44;4977249;28;20073;-75
2023/03/21 11:49:18;;;;;;;0.00;0.00;;;;;;;23.27;46.72;99657.09;4970583;28;20030;-75
2023/03/21 11:52:17;;;;;;;0.00;0.00;;;;;;;24.71;39.46;99653.72;4983005;28;20132;-76
2023/03/21 11:54:58;;;;;;;0.00;0.00;;;;;;;25.58;37.59;99652.63;4984947;28;20085;-76